sensor_id;sensor_type;location;lat;lon;timestamp;temperature;humidity
2523;DHT22;1272;53.332;9.860;2022-12-18T00:03:40;-7.70;99.90
2523;DHT22;1272;53.332;9.860;2022-12-18T00:06:06;-7.70;99.90
2523;DHT22;1272;53.332;9.860;2022-12-18T00:08:32;-7.70;99.90
2523;DHT22;1272;53.332;9.860;2022-12-18T00:11:04;-7.70;99.90
2523;DHT22;1272;53.332;9.860;2022-12-18T00:13:29;-7.70;99.90
2523;DHT22;1272;53.332;9.860;2022-12-18T00:15:55;-7.70;99.90
2523;DHT22;1272;53.332;9.860;2022-12-18T00:18:21;-7.70;99.90
2523;DHT22;1272;53.332;9.860;2022-12-18T00:20:46;-7.80;95.40
2523;DHT22;1272;53.332;9.860;2022-12-18T00:23:12;-7.70;99.90
2523;DHT22;1272;53.332;9.860;2022-12-18T00:25:37;-7.80;85.60
2523;DHT22;1272;53.332;9.860;2022-12-18T00:28:04;-7.80;93.90
2523;DHT22;1272;53.332;9.860;2022-12-18T00:30:30;-7.80;99.90
2523;DHT22;1272;53.332;9.860;2022-12-18T00:32:56;-7.80;99.90
2523;DHT22;1272;53.332;9.860;2022-12-18T00:35:22;-7.90;45.90
2523;DHT22;1272;53.332;9.860;2022-12-18T00:37:48;-7.90;99.90
2523;DHT22;1272;53.332;9.860;2022-12-18T00:40:13;-7.90;1.00
2523;DHT22;1272;53.332;9.860;2022-12-18T00:42:39;-7.90;1.00
2523;DHT22;1272;53.332;9.860;2022-12-18T00:45:29;-7.80;1.00
2523;DHT22;1272;53.332;9.860;2022-12-18T00:47:55;-7.80;1.00
2523;DHT22;1272;53.332;9.860;2022-12-18T00:50:22;-7.80;1.00
2523;DHT22;1272;53.332;9.860;2022-12-18T00:52:48;-7.80;1.00
2523;DHT22;1272;53.332;9.860;2022-12-18T00:55:14;-7.90;1.00
2523;DHT22;1272;53.332;9.860;2022-12-18T00:57:40;-7.90;1.00
2523;DHT22;1272;53.332;9.860;2022-12-18T01:00:08;-7.90;99.90
2523;DHT22;1272;53.332;9.860;2022-12-18T01:02:54;-8.00;99.90
2523;DHT22;1272;53.332;9.860;2022-12-18T01:05:20;-8.00;99.90
2523;DHT22;1272;53.332;9.860;2022-12-18T01:07:45;-8.10;99.90
2523;DHT22;1272;53.332;9.860;2022-12-18T01:10:12;-8.00;1.00
2523;DHT22;1272;53.332;9.860;2022-12-18T01:12:38;-8.00;99.90
2523;DHT22;1272;53.332;9.860;2022-12-18T01:15:05;-8.00;1.00
2523;DHT22;1272;53.332;9.860;2022-12-18T01:17:32;-8.00;1.00
2523;DHT22;1272;53.332;9.860;2022-12-18T01:19:58;-8.00;99.90
2523;DHT22;1272;53.332;9.860;2022-12-18T01:22:23;-8.00;99.90
2523;DHT22;1272;53.332;9.860;2022-12-18T01:24:49;-8.00;99.90
2523;DHT22;1272;53.332;9.860;2022-12-18T01:27:15;-8.00;99.90
2523;DHT22;1272;53.332;9.860;2022-12-18T01:29:41;-8.00;99.90
2523;DHT22;1272;53.332;9.860;2022-12-18T01:32:08;-8.00;99.90
2523;DHT22;1272;53.332;9.860;2022-12-18T01:34:35;-8.00;99.90
2523;DHT22;1272;53.332;9.860;2022-12-18T01:37:03;-8.00;1.00
2523;DHT22;1272;53.332;9.860;2022-12-18T01:39:29;-8.00;1.00
2523;DHT22;1272;53.332;9.860;2022-12-18T01:41:55;-7.90;1.00
2523;DHT22;1272;53.332;9.860;2022-12-18T01:49:53;-7.90;1.00
2523;DHT22;1272;53.332;9.860;2022-12-18T01:52:20;-7.90;1.00
2523;DHT22;1272;53.332;9.860;2022-12-18T01:54:47;-7.90;1.00
2523;DHT22;1272;53.332;9.860;2022-12-18T01:57:14;-7.90;1.00
2523;DHT22;1272;53.332;9.860;2022-12-18T01:59:41;-7.90;1.00
2523;DHT22;1272;53.332;9.860;2022-12-18T02:02:08;-7.90;1.00
2523;DHT22;1272;53.332;9.860;2022-12-18T02:04:54;-7.90;1.00
2523;DHT22;1272;53.332;9.860;2022-12-18T02:18:13;-7.90;1.00
2523;DHT22;1272;53.332;9.860;2022-12-18T02:20:54;-8.00;1.00
2523;DHT22;1272;53.332;9.860;2022-12-18T02:28:47;-8.10;1.00
2523;DHT22;1272;53.332;9.860;2022-12-18T02:31:19;-8.10;1.00
2523;DHT22;1272;53.332;9.860;2022-12-18T02:33:50;-8.10;1.00
2523;DHT22;1272;53.332;9.860;2022-12-18T02:36:18;-8.00;1.00
2523;DHT22;1272;53.332;9.860;2022-12-18T02:38:46;-8.00;1.00
2523;DHT22;1272;53.332;9.860;2022-12-18T02:41:13;-8.00;1.00
2523;DHT22;1272;53.332;9.860;2022-12-18T02:43:45;-8.00;1.00
2523;DHT22;1272;53.332;9.860;2022-12-18T02:49:47;-8.00;1.00
2523;DHT22;1272;53.332;9.860;2022-12-18T02:51:59;-8.00;1.00
2523;DHT22;1272;53.332;9.860;2022-12-18T02:57:19;-8.00;1.00
2523;DHT22;1272;53.332;9.860;2022-12-18T03:00:00;-8.10;1.00
2523;DHT22;1272;53.332;9.860;2022-12-18T03:02:37;-8.10;1.00
2523;DHT22;1272;53.332;9.860;2022-12-18T03:05:07;-8.10;1.00
2523;DHT22;1272;53.332;9.860;2022-12-18T03:08:04;-8.10;1.00
2523;DHT22;1272;53.332;9.860;2022-12-18T03:10:33;-8.00;1.00
2523;DHT22;1272;53.332;9.860;2022-12-18T03:13:13;-8.00;1.00
2523;DHT22;1272;53.332;9.860;2022-12-18T03:15:47;-8.00;1.00
2523;DHT22;1272;53.332;9.860;2022-12-18T03:18:17;-8.00;1.00
2523;DHT22;1272;53.332;9.860;2022-12-18T03:20:47;-8.00;1.00
2523;DHT22;1272;53.332;9.860;2022-12-18T03:23:17;-8.00;1.00
2523;DHT22;1272;53.332;9.860;2022-12-18T03:25:46;-8.10;1.00
2523;DHT22;1272;53.332;9.860;2022-12-18T03:28:19;-8.10;1.00
2523;DHT22;1272;53.332;9.860;2022-12-18T03:30:49;-8.10;1.00
2523;DHT22;1272;53.332;9.860;2022-12-18T03:33:19;-8.10;1.00
2523;DHT22;1272;53.332;9.860;2022-12-18T03:35:45;-8.10;1.00
2523;DHT22;1272;53.332;9.860;2022-12-18T03:38:12;-8.10;1.00
2523;DHT22;1272;53.332;9.860;2022-12-18T03:46:04;-8.20;1.00
2523;DHT22;1272;53.332;9.860;2022-12-18T03:48:38;-8.20;99.90
2523;DHT22;1272;53.332;9.860;2022-12-18T03:51:18;-8.20;99.90
2523;DHT22;1272;53.332;9.860;2022-12-18T03:53:57;-8.20;99.90
2523;DHT22;1272;53.332;9.860;2022-12-18T03:56:26;-8.20;99.90
2523;DHT22;1272;53.332;9.860;2022-12-18T03:58:53;-8.30;99.90
2523;DHT22;1272;53.332;9.860;2022-12-18T04:01:24;-8.20;99.90
2523;DHT22;1272;53.332;9.860;2022-12-18T04:03:51;-8.30;99.90
2523;DHT22;1272;53.332;9.860;2022-12-18T04:06:18;-8.30;99.90
2523;DHT22;1272;53.332;9.860;2022-12-18T04:08:45;-8.30;99.90
2523;DHT22;1272;53.332;9.860;2022-12-18T04:11:11;-8.30;99.90
2523;DHT22;1272;53.332;9.860;2022-12-18T04:13:37;-8.30;99.90
2523;DHT22;1272;53.332;9.860;2022-12-18T04:16:04;-8.30;93.20
2523;DHT22;1272;53.332;9.860;2022-12-18T04:18:30;-8.30;80.30
2523;DHT22;1272;53.332;9.860;2022-12-18T04:20:55;-8.40;9.70
2523;DHT22;1272;53.332;9.860;2022-12-18T04:23:21;-8.40;1.00
2523;DHT22;1272;53.332;9.860;2022-12-18T04:25:47;-8.40;1.00
2523;DHT22;1272;53.332;9.860;2022-12-18T04:28:13;-8.40;1.00
2523;DHT22;1272;53.332;9.860;2022-12-18T04:30:39;-8.40;1.00
2523;DHT22;1272;53.332;9.860;2022-12-18T04:33:11;-8.50;1.00
2523;DHT22;1272;53.332;9.860;2022-12-18T04:35:39;-8.50;1.00
2523;DHT22;1272;53.332;9.860;2022-12-18T04:38:06;-8.50;1.00
2523;DHT22;1272;53.332;9.860;2022-12-18T04:40:37;-8.50;1.00
2523;DHT22;1272;53.332;9.860;2022-12-18T04:43:03;-8.50;1.00
2523;DHT22;1272;53.332;9.860;2022-12-18T04:45:30;-8.50;99.90
2523;DHT22;1272;53.332;9.860;2022-12-18T04:48:00;-8.60;99.90
2523;DHT22;1272;53.332;9.860;2022-12-18T04:50:26;-8.60;99.90
2523;DHT22;1272;53.332;9.860;2022-12-18T04:52:52;-8.60;99.90
2523;DHT22;1272;53.332;9.860;2022-12-18T04:55:18;-8.60;99.90
2523;DHT22;1272;53.332;9.860;2022-12-18T04:57:44;-8.60;99.90
2523;DHT22;1272;53.332;9.860;2022-12-18T05:00:10;-8.60;99.90
2523;DHT22;1272;53.332;9.860;2022-12-18T05:02:36;-8.70;99.90
2523;DHT22;1272;53.332;9.860;2022-12-18T05:05:02;-8.70;99.90
2523;DHT22;1272;53.332;9.860;2022-12-18T05:07:28;-8.70;99.90
2523;DHT22;1272;53.332;9.860;2022-12-18T05:09:53;-8.70;97.10
2523;DHT22;1272;53.332;9.860;2022-12-18T05:12:19;-8.80;1.00
2523;DHT22;1272;53.332;9.860;2022-12-18T05:14:45;-8.80;1.00
2523;DHT22;1272;53.332;9.860;2022-12-18T05:17:10;-8.90;1.00
2523;DHT22;1272;53.332;9.860;2022-12-18T05:19:39;-8.80;1.00
2523;DHT22;1272;53.332;9.860;2022-12-18T05:22:08;-8.80;21.10
2523;DHT22;1272;53.332;9.860;2022-12-18T05:24:34;-8.80;63.80
2523;DHT22;1272;53.332;9.860;2022-12-18T05:26:59;-8.90;1.00
2523;DHT22;1272;53.332;9.860;2022-12-18T05:29:25;-8.90;1.00
2523;DHT22;1272;53.332;9.860;2022-12-18T05:31:51;-8.90;22.30
2523;DHT22;1272;53.332;9.860;2022-12-18T05:34:17;-8.80;1.00
2523;DHT22;1272;53.332;9.860;2022-12-18T05:36:42;-8.90;1.00
2523;DHT22;1272;53.332;9.860;2022-12-18T05:39:09;-8.90;1.00
2523;DHT22;1272;53.332;9.860;2022-12-18T05:41:35;-8.90;1.00
2523;DHT22;1272;53.332;9.860;2022-12-18T05:44:01;-8.90;1.00
2523;DHT22;1272;53.332;9.860;2022-12-18T05:46:26;-8.90;1.00
2523;DHT22;1272;53.332;9.860;2022-12-18T05:48:52;-9.00;1.00
2523;DHT22;1272;53.332;9.860;2022-12-18T05:51:20;-9.00;1.00
2523;DHT22;1272;53.332;9.860;2022-12-18T05:53:47;-9.00;1.00
2523;DHT22;1272;53.332;9.860;2022-12-18T05:56:19;-9.00;99.90
2523;DHT22;1272;53.332;9.860;2022-12-18T05:58:46;-9.00;1.00
2523;DHT22;1272;53.332;9.860;2022-12-18T06:01:24;-9.00;99.90
2523;DHT22;1272;53.332;9.860;2022-12-18T06:03:50;-9.00;99.90
2523;DHT22;1272;53.332;9.860;2022-12-18T06:06:24;-9.00;99.90
2523;DHT22;1272;53.332;9.860;2022-12-18T06:08:53;-9.00;99.90
2523;DHT22;1272;53.332;9.860;2022-12-18T06:11:22;-9.10;99.90
2523;DHT22;1272;53.332;9.860;2022-12-18T06:13:53;-9.10;99.90
2523;DHT22;1272;53.332;9.860;2022-12-18T06:16:19;-9.10;99.90
2523;DHT22;1272;53.332;9.860;2022-12-18T06:18:45;-9.10;99.90
2523;DHT22;1272;53.332;9.860;2022-12-18T06:21:11;-9.10;99.90
2523;DHT22;1272;53.332;9.860;2022-12-18T06:23:37;-9.10;99.90
2523;DHT22;1272;53.332;9.860;2022-12-18T06:26:05;-9.20;99.90
2523;DHT22;1272;53.332;9.860;2022-12-18T06:28:31;-9.10;99.90
2523;DHT22;1272;53.332;9.860;2022-12-18T06:30:57;-9.10;99.90
2523;DHT22;1272;53.332;9.860;2022-12-18T06:33:26;-9.20;23.00
2523;DHT22;1272;53.332;9.860;2022-12-18T06:35:53;-9.20;11.90
2523;DHT22;1272;53.332;9.860;2022-12-18T06:38:19;-9.20;1.00
2523;DHT22;1272;53.332;9.860;2022-12-18T06:40:44;-9.20;1.00
2523;DHT22;1272;53.332;9.860;2022-12-18T06:43:10;-9.20;1.00
2523;DHT22;1272;53.332;9.860;2022-12-18T06:45:36;-9.20;1.00
2523;DHT22;1272;53.332;9.860;2022-12-18T06:48:01;-9.30;1.00
2523;DHT22;1272;53.332;9.860;2022-12-18T06:50:27;-9.30;1.00
2523;DHT22;1272;53.332;9.860;2022-12-18T06:52:53;-9.30;1.00
2523;DHT22;1272;53.332;9.860;2022-12-18T06:55:18;-9.20;1.00
2523;DHT22;1272;53.332;9.860;2022-12-18T06:57:44;-9.20;1.00
2523;DHT22;1272;53.332;9.860;2022-12-18T07:00:11;-9.30;1.00
2523;DHT22;1272;53.332;9.860;2022-12-18T07:02:37;-9.30;1.00
2523;DHT22;1272;53.332;9.860;2022-12-18T07:05:03;-9.30;99.90
2523;DHT22;1272;53.332;9.860;2022-12-18T07:07:28;-9.40;1.00
2523;DHT22;1272;53.332;9.860;2022-12-18T07:09:54;-9.40;27.60
2523;DHT22;1272;53.332;9.860;2022-12-18T07:12:20;-9.50;1.00
2523;DHT22;1272;53.332;9.860;2022-12-18T07:14:45;-9.40;99.90
2523;DHT22;1272;53.332;9.860;2022-12-18T07:17:11;-9.40;99.90
2523;DHT22;1272;53.332;9.860;2022-12-18T07:19:36;-9.30;99.90
2523;DHT22;1272;53.332;9.860;2022-12-18T07:22:02;-9.40;1.00
2523;DHT22;1272;53.332;9.860;2022-12-18T07:24:28;-9.30;1.00
2523;DHT22;1272;53.332;9.860;2022-12-18T07:26:54;-9.30;1.00
2523;DHT22;1272;53.332;9.860;2022-12-18T07:29:19;-9.30;1.00
2523;DHT22;1272;53.332;9.860;2022-12-18T07:31:45;-9.30;1.00
2523;DHT22;1272;53.332;9.860;2022-12-18T07:34:12;-9.30;1.00
2523;DHT22;1272;53.332;9.860;2022-12-18T07:36:38;-9.20;1.00
2523;DHT22;1272;53.332;9.860;2022-12-18T07:39:04;-9.20;1.00
2523;DHT22;1272;53.332;9.860;2022-12-18T07:41:30;-9.20;63.60
2523;DHT22;1272;53.332;9.860;2022-12-18T07:43:57;-9.20;26.00
2523;DHT22;1272;53.332;9.860;2022-12-18T07:46:22;-9.20;15.20
2523;DHT22;1272;53.332;9.860;2022-12-18T07:48:48;-9.20;45.40
2523;DHT22;1272;53.332;9.860;2022-12-18T07:51:14;-9.20;18.10
2523;DHT22;1272;53.332;9.860;2022-12-18T07:53:39;-9.20;4.40
2523;DHT22;1272;53.332;9.860;2022-12-18T07:56:08;-9.20;40.70
2523;DHT22;1272;53.332;9.860;2022-12-18T07:58:35;-9.20;20.90
2523;DHT22;1272;53.332;9.860;2022-12-18T08:01:06;-9.10;99.90
2523;DHT22;1272;53.332;9.860;2022-12-18T08:03:32;-9.10;99.90
2523;DHT22;1272;53.332;9.860;2022-12-18T08:06:03;-9.00;1.20
2523;DHT22;1272;53.332;9.860;2022-12-18T08:08:29;-9.00;1.00
2523;DHT22;1272;53.332;9.860;2022-12-18T08:10:58;-9.00;1.00
2523;DHT22;1272;53.332;9.860;2022-12-18T08:13:24;-9.00;37.30
2523;DHT22;1272;53.332;9.860;2022-12-18T08:16:03;-9.00;68.70
2523;DHT22;1272;53.332;9.860;2022-12-18T08:18:33;-8.90;99.90
2523;DHT22;1272;53.332;9.860;2022-12-18T08:21:11;-8.90;99.90
2523;DHT22;1272;53.332;9.860;2022-12-18T08:23:37;-8.80;99.90
2523;DHT22;1272;53.332;9.860;2022-12-18T08:26:03;-8.80;99.90
2523;DHT22;1272;53.332;9.860;2022-12-18T08:28:29;-8.80;1.00
2523;DHT22;1272;53.332;9.860;2022-12-18T08:30:55;-8.70;1.00
2523;DHT22;1272;53.332;9.860;2022-12-18T08:33:21;-8.70;1.00
2523;DHT22;1272;53.332;9.860;2022-12-18T08:35:46;-8.60;42.90
2523;DHT22;1272;53.332;9.860;2022-12-18T08:38:12;-8.60;88.50
2523;DHT22;1272;53.332;9.860;2022-12-18T08:40:38;-8.60;99.90
2523;DHT22;1272;53.332;9.860;2022-12-18T08:43:03;-8.50;99.90
2523;DHT22;1272;53.332;9.860;2022-12-18T08:45:47;-8.50;99.90
2523;DHT22;1272;53.332;9.860;2022-12-18T08:48:13;-8.40;99.90
2523;DHT22;1272;53.332;9.860;2022-12-18T08:50:39;-8.40;99.90
2523;DHT22;1272;53.332;9.860;2022-12-18T08:53:05;-8.30;99.90
2523;DHT22;1272;53.332;9.860;2022-12-18T08:55:31;-8.20;99.90
2523;DHT22;1272;53.332;9.860;2022-12-18T08:57:56;-8.10;1.00
2523;DHT22;1272;53.332;9.860;2022-12-18T09:00:22;-8.00;1.00
2523;DHT22;1272;53.332;9.860;2022-12-18T09:02:48;-8.00;1.00
2523;DHT22;1272;53.332;9.860;2022-12-18T09:05:13;-7.90;1.00
2523;DHT22;1272;53.332;9.860;2022-12-18T09:07:39;-7.90;1.00
2523;DHT22;1272;53.332;9.860;2022-12-18T09:10:05;-7.70;1.00
2523;DHT22;1272;53.332;9.860;2022-12-18T09:12:31;-7.60;1.00
2523;DHT22;1272;53.332;9.860;2022-12-18T09:14:57;-7.50;3.10
2523;DHT22;1272;53.332;9.860;2022-12-18T09:17:22;-7.40;33.30
2523;DHT22;1272;53.332;9.860;2022-12-18T09:19:48;-7.30;55.80
2523;DHT22;1272;53.332;9.860;2022-12-18T09:22:14;-7.20;74.80
2523;DHT22;1272;53.332;9.860;2022-12-18T09:24:40;-7.10;93.50
2523;DHT22;1272;53.332;9.860;2022-12-18T09:27:06;-7.00;99.90
2523;DHT22;1272;53.332;9.860;2022-12-18T09:29:32;-6.90;99.90
2523;DHT22;1272;53.332;9.860;2022-12-18T09:31:58;-6.80;99.90
2523;DHT22;1272;53.332;9.860;2022-12-18T09:34:23;-6.70;99.90
2523;DHT22;1272;53.332;9.860;2022-12-18T09:36:49;-6.70;99.90
2523;DHT22;1272;53.332;9.860;2022-12-18T09:39:15;-6.60;99.90
2523;DHT22;1272;53.332;9.860;2022-12-18T09:41:54;-6.50;99.90
2523;DHT22;1272;53.332;9.860;2022-12-18T09:47:03;-6.20;99.90
2523;DHT22;1272;53.332;9.860;2022-12-18T09:49:43;-6.20;99.90
2523;DHT22;1272;53.332;9.860;2022-12-18T09:52:14;-6.10;99.90
2523;DHT22;1272;53.332;9.860;2022-12-18T09:57:25;-5.90;99.90
2523;DHT22;1272;53.332;9.860;2022-12-18T10:00:35;-5.80;99.90
2523;DHT22;1272;53.332;9.860;2022-12-18T10:03:00;-5.70;99.90
2523;DHT22;1272;53.332;9.860;2022-12-18T10:08:18;-5.50;99.90
2523;DHT22;1272;53.332;9.860;2022-12-18T10:10:50;-5.40;99.90
2523;DHT22;1272;53.332;9.860;2022-12-18T10:13:42;-5.20;99.90
2523;DHT22;1272;53.332;9.860;2022-12-18T10:16:19;-5.10;99.90
2523;DHT22;1272;53.332;9.860;2022-12-18T10:21:30;-4.80;99.90
2523;DHT22;1272;53.332;9.860;2022-12-18T10:26:41;-4.60;99.90
2523;DHT22;1272;53.332;9.860;2022-12-18T10:29:12;-4.50;99.90
2523;DHT22;1272;53.332;9.860;2022-12-18T10:31:39;-4.40;99.90
2523;DHT22;1272;53.332;9.860;2022-12-18T10:34:15;-4.30;99.90
2523;DHT22;1272;53.332;9.860;2022-12-18T10:36:41;-4.20;99.90
2523;DHT22;1272;53.332;9.860;2022-12-18T10:39:16;-4.00;99.90
2523;DHT22;1272;53.332;9.860;2022-12-18T10:41:42;-3.80;99.90
2523;DHT22;1272;53.332;9.860;2022-12-18T10:44:19;-3.70;99.90
2523;DHT22;1272;53.332;9.860;2022-12-18T10:46:47;-3.60;99.90
2523;DHT22;1272;53.332;9.860;2022-12-18T10:49:26;-3.50;99.90
2523;DHT22;1272;53.332;9.860;2022-12-18T10:52:05;-3.40;99.90
2523;DHT22;1272;53.332;9.860;2022-12-18T10:54:33;-3.30;99.90
2523;DHT22;1272;53.332;9.860;2022-12-18T10:57:34;-3.20;99.90
2523;DHT22;1272;53.332;9.860;2022-12-18T11:00:28;-3.10;99.90
2523;DHT22;1272;53.332;9.860;2022-12-18T11:02:55;-3.10;99.90
2523;DHT22;1272;53.332;9.860;2022-12-18T11:05:28;-3.00;99.90
2523;DHT22;1272;53.332;9.860;2022-12-18T11:07:55;-2.90;99.90
2523;DHT22;1272;53.332;9.860;2022-12-18T11:10:28;-2.80;99.90
2523;DHT22;1272;53.332;9.860;2022-12-18T11:12:54;-2.70;99.90
2523;DHT22;1272;53.332;9.860;2022-12-18T11:15:26;-2.60;99.90
2523;DHT22;1272;53.332;9.860;2022-12-18T11:17:53;-2.50;99.70
2523;DHT22;1272;53.332;9.860;2022-12-18T11:20:29;-2.40;81.50
2523;DHT22;1272;53.332;9.860;2022-12-18T11:23:00;-2.30;37.30
2523;DHT22;1272;53.332;9.860;2022-12-18T11:25:30;-2.30;27.70
2523;DHT22;1272;53.332;9.860;2022-12-18T11:28:01;-2.20;2.40
2523;DHT22;1272;53.332;9.860;2022-12-18T11:30:32;-2.00;1.00
2523;DHT22;1272;53.332;9.860;2022-12-18T11:33:16;-2.00;1.00
2523;DHT22;1272;53.332;9.860;2022-12-18T11:35:59;-1.90;1.00
2523;DHT22;1272;53.332;9.860;2022-12-18T11:38:37;-1.80;1.00
2523;DHT22;1272;53.332;9.860;2022-12-18T11:44:15;-1.60;1.00
2523;DHT22;1272;53.332;9.860;2022-12-18T11:46:51;-1.60;1.00
2523;DHT22;1272;53.332;9.860;2022-12-18T11:49:34;-1.60;1.00
2523;DHT22;1272;53.332;9.860;2022-12-18T11:54:43;-1.50;99.90
2523;DHT22;1272;53.332;9.860;2022-12-18T12:00:13;-1.50;1.00
2523;DHT22;1272;53.332;9.860;2022-12-18T12:11:32;-1.40;99.90
2523;DHT22;1272;53.332;9.860;2022-12-18T12:27:45;-1.10;10.60
2523;DHT22;1272;53.332;9.860;2022-12-18T12:30:25;-1.10;52.10
2523;DHT22;1272;53.332;9.860;2022-12-18T12:38:13;-1.00;99.90
2523;DHT22;1272;53.332;9.860;2022-12-18T12:40:46;-1.00;99.90
2523;DHT22;1272;53.332;9.860;2022-12-18T12:43:20;-1.00;99.90
2523;DHT22;1272;53.332;9.860;2022-12-18T12:45:54;-0.90;1.00
2523;DHT22;1272;53.332;9.860;2022-12-18T12:51:08;-0.90;1.00
2523;DHT22;1272;53.332;9.860;2022-12-18T12:53:37;-0.90;1.00
2523;DHT22;1272;53.332;9.860;2022-12-18T12:56:05;-1.00;99.90
2523;DHT22;1272;53.332;9.860;2022-12-18T12:58:38;-1.00;99.90
2523;DHT22;1272;53.332;9.860;2022-12-18T13:09:25;-1.00;99.90
2523;DHT22;1272;53.332;9.860;2022-12-18T13:12:04;-1.00;99.90
2523;DHT22;1272;53.332;9.860;2022-12-18T13:15:20;-1.00;99.90
2523;DHT22;1272;53.332;9.860;2022-12-18T13:17:46;-1.00;99.90
2523;DHT22;1272;53.332;9.860;2022-12-18T13:20:13;-0.90;99.90
2523;DHT22;1272;53.332;9.860;2022-12-18T13:22:48;-1.00;99.90
2523;DHT22;1272;53.332;9.860;2022-12-18T13:28:17;-1.00;28.40
2523;DHT22;1272;53.332;9.860;2022-12-18T13:30:54;-0.90;86.40
2523;DHT22;1272;53.332;9.860;2022-12-18T13:36:31;-1.00;1.00
2523;DHT22;1272;53.332;9.860;2022-12-18T13:41:45;-1.10;1.00
2523;DHT22;1272;53.332;9.860;2022-12-18T13:46:56;-1.20;1.00
2523;DHT22;1272;53.332;9.860;2022-12-18T13:49:38;-1.20;1.00
2523;DHT22;1272;53.332;9.860;2022-12-18T13:52:28;-1.20;99.90
2523;DHT22;1272;53.332;9.860;2022-12-18T13:54:59;-1.20;1.00
2523;DHT22;1272;53.332;9.860;2022-12-18T13:57:32;-1.30;99.90
2523;DHT22;1272;53.332;9.860;2022-12-18T14:00:19;-1.30;1.00
2523;DHT22;1272;53.332;9.860;2022-12-18T14:02:45;-1.40;1.00
2523;DHT22;1272;53.332;9.860;2022-12-18T14:05:34;-1.40;1.00
2523;DHT22;1272;53.332;9.860;2022-12-18T14:08:08;-1.50;1.00
2523;DHT22;1272;53.332;9.860;2022-12-18T14:10:35;-1.60;1.00
2523;DHT22;1272;53.332;9.860;2022-12-18T14:13:08;-1.50;1.00
2523;DHT22;1272;53.332;9.860;2022-12-18T14:15:45;-1.60;1.00
2523;DHT22;1272;53.332;9.860;2022-12-18T14:21:00;-1.80;1.00
2523;DHT22;1272;53.332;9.860;2022-12-18T14:23:36;-1.80;1.00
2523;DHT22;1272;53.332;9.860;2022-12-18T14:26:22;-1.80;1.00
2523;DHT22;1272;53.332;9.860;2022-12-18T14:28:49;-1.90;1.00
2523;DHT22;1272;53.332;9.860;2022-12-18T14:31:19;-1.90;1.00
2523;DHT22;1272;53.332;9.860;2022-12-18T14:33:45;-1.80;1.00
2523;DHT22;1272;53.332;9.860;2022-12-18T14:36:26;-1.90;6.20
2523;DHT22;1272;53.332;9.860;2022-12-18T14:38:56;-1.90;99.90
2523;DHT22;1272;53.332;9.860;2022-12-18T14:41:23;-1.90;1.00
2523;DHT22;1272;53.332;9.860;2022-12-18T14:43:54;-2.10;48.70
2523;DHT22;1272;53.332;9.860;2022-12-18T14:48:59;-2.20;99.90
2523;DHT22;1272;53.332;9.860;2022-12-18T14:51:31;-2.20;99.90
2523;DHT22;1272;53.332;9.860;2022-12-18T14:53:59;-2.10;99.90
2523;DHT22;1272;53.332;9.860;2022-12-18T14:57:00;-2.20;99.90
2523;DHT22;1272;53.332;9.860;2022-12-18T14:59:28;-2.20;99.90
2523;DHT22;1272;53.332;9.860;2022-12-18T15:07:14;-2.30;1.00
2523;DHT22;1272;53.332;9.860;2022-12-18T15:09:41;-2.40;1.00
2523;DHT22;1272;53.332;9.860;2022-12-18T15:12:28;-2.50;1.00
2523;DHT22;1272;53.332;9.860;2022-12-18T15:14:58;-2.50;1.00
2523;DHT22;1272;53.332;9.860;2022-12-18T15:17:24;-2.50;35.20
2523;DHT22;1272;53.332;9.860;2022-12-18T15:19:52;-2.60;99.90
2523;DHT22;1272;53.332;9.860;2022-12-18T15:22:34;-2.60;99.90
2523;DHT22;1272;53.332;9.860;2022-12-18T15:25:01;-2.60;99.90
2523;DHT22;1272;53.332;9.860;2022-12-18T15:27:34;-2.70;99.90
2523;DHT22;1272;53.332;9.860;2022-12-18T15:32:26;-2.70;1.00
2523;DHT22;1272;53.332;9.860;2022-12-18T15:37:40;-2.70;1.00
2523;DHT22;1272;53.332;9.860;2022-12-18T15:40:11;-2.80;1.00
2523;DHT22;1272;53.332;9.860;2022-12-18T15:42:37;-2.80;99.90
2523;DHT22;1272;53.332;9.860;2022-12-18T15:45:21;-2.90;1.00
2523;DHT22;1272;53.332;9.860;2022-12-18T15:47:47;-2.90;1.00
2523;DHT22;1272;53.332;9.860;2022-12-18T15:50:13;-2.90;99.90
2523;DHT22;1272;53.332;9.860;2022-12-18T15:52:44;-2.80;99.90
2523;DHT22;1272;53.332;9.860;2022-12-18T15:55:16;-2.80;1.00
2523;DHT22;1272;53.332;9.860;2022-12-18T15:58:00;-2.80;1.00
2523;DHT22;1272;53.332;9.860;2022-12-18T16:00:26;-2.80;1.00
2523;DHT22;1272;53.332;9.860;2022-12-18T16:02:52;-2.80;1.00
2523;DHT22;1272;53.332;9.860;2022-12-18T16:05:19;-2.80;99.90
2523;DHT22;1272;53.332;9.860;2022-12-18T16:07:46;-2.80;99.90
2523;DHT22;1272;53.332;9.860;2022-12-18T16:10:12;-2.90;1.00
2523;DHT22;1272;53.332;9.860;2022-12-18T16:12:38;-2.90;99.90
2523;DHT22;1272;53.332;9.860;2022-12-18T16:15:04;-2.90;99.90
2523;DHT22;1272;53.332;9.860;2022-12-18T16:17:31;-2.90;1.00
2523;DHT22;1272;53.332;9.860;2022-12-18T16:19:56;-3.00;1.00
2523;DHT22;1272;53.332;9.860;2022-12-18T16:22:27;-3.00;1.00
2523;DHT22;1272;53.332;9.860;2022-12-18T16:24:54;-2.90;1.00
2523;DHT22;1272;53.332;9.860;2022-12-18T16:27:21;-2.90;1.00
2523;DHT22;1272;53.332;9.860;2022-12-18T16:29:47;-2.90;99.90
2523;DHT22;1272;53.332;9.860;2022-12-18T16:32:15;-2.90;1.00
2523;DHT22;1272;53.332;9.860;2022-12-18T16:34:42;-2.90;1.00
2523;DHT22;1272;53.332;9.860;2022-12-18T16:37:10;-2.90;1.00
2523;DHT22;1272;53.332;9.860;2022-12-18T16:39:37;-2.90;1.00
2523;DHT22;1272;53.332;9.860;2022-12-18T16:44:38;-2.90;1.00
2523;DHT22;1272;53.332;9.860;2022-12-18T16:47:03;-2.90;1.00
2523;DHT22;1272;53.332;9.860;2022-12-18T16:49:29;-2.90;54.50
2523;DHT22;1272;53.332;9.860;2022-12-18T16:51:55;-2.90;99.90
2523;DHT22;1272;53.332;9.860;2022-12-18T16:54:21;-2.90;99.90
2523;DHT22;1272;53.332;9.860;2022-12-18T16:56:50;-2.80;1.00
2523;DHT22;1272;53.332;9.860;2022-12-18T16:59:16;-2.80;1.00
2523;DHT22;1272;53.332;9.860;2022-12-18T17:01:41;-2.70;1.00
2523;DHT22;1272;53.332;9.860;2022-12-18T17:04:08;-2.80;1.00
2523;DHT22;1272;53.332;9.860;2022-12-18T17:06:38;-2.70;99.90
2523;DHT22;1272;53.332;9.860;2022-12-18T17:09:06;-2.80;1.00
2523;DHT22;1272;53.332;9.860;2022-12-18T17:11:34;-2.80;1.00
2523;DHT22;1272;53.332;9.860;2022-12-18T17:14:08;-2.80;1.00
2523;DHT22;1272;53.332;9.860;2022-12-18T17:16:34;-2.80;95.50
2523;DHT22;1272;53.332;9.860;2022-12-18T17:19:00;-2.80;1.00
2523;DHT22;1272;53.332;9.860;2022-12-18T17:21:26;-2.80;1.00
2523;DHT22;1272;53.332;9.860;2022-12-18T17:23:54;-2.80;8.20
2523;DHT22;1272;53.332;9.860;2022-12-18T17:26:21;-2.90;99.90
2523;DHT22;1272;53.332;9.860;2022-12-18T17:28:47;-2.90;99.90
2523;DHT22;1272;53.332;9.860;2022-12-18T17:31:17;-2.90;99.90
2523;DHT22;1272;53.332;9.860;2022-12-18T17:33:43;-2.80;99.90
2523;DHT22;1272;53.332;9.860;2022-12-18T17:36:09;-2.70;1.00
2523;DHT22;1272;53.332;9.860;2022-12-18T17:38:35;-2.70;99.90
2523;DHT22;1272;53.332;9.860;2022-12-18T17:41:02;-2.80;1.00
2523;DHT22;1272;53.332;9.860;2022-12-18T17:43:29;-2.80;32.60
2523;DHT22;1272;53.332;9.860;2022-12-18T17:46:01;-2.80;99.90
2523;DHT22;1272;53.332;9.860;2022-12-18T17:48:27;-2.80;99.90
2523;DHT22;1272;53.332;9.860;2022-12-18T17:50:53;-2.80;99.90
2523;DHT22;1272;53.332;9.860;2022-12-18T17:53:19;-2.80;99.90
2523;DHT22;1272;53.332;9.860;2022-12-18T17:55:53;-2.80;18.50
2523;DHT22;1272;53.332;9.860;2022-12-18T17:58:19;-2.80;20.80
2523;DHT22;1272;53.332;9.860;2022-12-18T18:00:45;-2.80;99.90
2523;DHT22;1272;53.332;9.860;2022-12-18T18:03:19;-2.80;99.90
2523;DHT22;1272;53.332;9.860;2022-12-18T18:05:45;-2.80;99.90
2523;DHT22;1272;53.332;9.860;2022-12-18T18:08:11;-2.70;10.40
2523;DHT22;1272;53.332;9.860;2022-12-18T18:10:38;-2.70;1.00
2523;DHT22;1272;53.332;9.860;2022-12-18T18:13:04;-2.70;1.00
2523;DHT22;1272;53.332;9.860;2022-12-18T18:15:56;-2.70;99.90
2523;DHT22;1272;53.332;9.860;2022-12-18T18:18:22;-2.70;99.90
2523;DHT22;1272;53.332;9.860;2022-12-18T18:20:48;-2.70;99.90
2523;DHT22;1272;53.332;9.860;2022-12-18T18:23:13;-2.70;99.90
2523;DHT22;1272;53.332;9.860;2022-12-18T18:25:39;-2.70;99.90
2523;DHT22;1272;53.332;9.860;2022-12-18T18:28:08;-2.60;1.00
2523;DHT22;1272;53.332;9.860;2022-12-18T18:30:35;-2.70;1.00